createdAt,value
2022-10-01T00:02:02.062Z,5.45
2022-10-01T00:04:29.073Z,5.32
2022-10-01T00:06:59.272Z,6.15
2022-10-01T00:09:26.871Z,5.20
2022-10-01T00:11:53.582Z,5.57
2022-10-01T00:14:20.800Z,5.40
2022-10-01T00:16:47.612Z,5.68
2022-10-01T00:19:15.074Z,5.50
2022-10-01T00:21:41.839Z,4.95
2022-10-01T00:24:12.290Z,5.35
2022-10-01T00:26:39.444Z,5.68
2022-10-01T00:29:10.895Z,5.20
2022-10-01T00:31:38.155Z,6.25
2022-10-01T00:34:05.378Z,6.03
2022-10-01T00:36:33.485Z,5.35
2022-10-01T00:39:00.850Z,5.80
2022-10-01T00:41:33.944Z,5.35
2022-10-01T00:44:28.222Z,5.90
2022-10-01T00:46:58.054Z,5.55
2022-10-01T00:49:28.525Z,6.00
2022-10-01T00:51:58.591Z,5.70
2022-10-01T00:54:42.465Z,5.30
2022-10-01T00:57:11.495Z,5.88
2022-10-01T00:59:38.284Z,6.40
2022-10-01T01:02:05.049Z,5.93
2022-10-01T01:04:32.000Z,5.68
2022-10-01T01:07:02.310Z,5.80
2022-10-01T01:09:35.975Z,5.80
2022-10-01T01:12:39.936Z,5.75
2022-10-01T01:15:14.491Z,6.00
2022-10-01T01:17:56.360Z,6.50
2022-10-01T01:20:45.513Z,6.80
2022-10-01T01:23:15.668Z,6.88
2022-10-01T01:26:05.851Z,7.22
2022-10-01T01:28:37.816Z,6.20
2022-10-01T01:31:14.390Z,7.35
2022-10-01T01:33:44.287Z,7.68
2022-10-01T01:36:26.512Z,7.40
2022-10-01T01:39:00.150Z,8.05
2022-10-01T01:41:30.624Z,8.25
2022-10-01T01:44:02.128Z,9.27
2022-10-01T01:46:34.926Z,9.13
2022-10-01T01:49:04.431Z,8.35
2022-10-01T01:51:45.625Z,8.98
2022-10-01T01:54:12.481Z,8.93
2022-10-01T01:56:39.454Z,8.80
2022-10-01T01:59:07.040Z,8.55
2022-10-01T02:01:34.688Z,9.23
2022-10-01T02:04:05.350Z,10.05
2022-10-01T02:06:52.951Z,8.95
2022-10-01T02:09:32.171Z,8.82
2022-10-01T02:12:37.282Z,8.85
2022-10-01T02:15:18.093Z,8.23
2022-10-01T02:17:50.643Z,8.70
2022-10-01T02:20:31.060Z,8.25
2022-10-01T02:23:06.186Z,8.50
2022-10-01T02:25:48.944Z,8.02
2022-10-01T02:28:21.226Z,6.90
2022-10-01T02:30:50.344Z,7.05
2022-10-01T02:33:23.115Z,7.00
2022-10-01T02:35:52.271Z,7.05
2022-10-01T02:38:22.998Z,6.50
2022-10-01T02:40:52.898Z,8.35
2022-10-01T02:43:23.934Z,7.47
2022-10-01T02:45:57.904Z,7.35
2022-10-01T02:48:25.834Z,7.85
2022-10-01T02:50:55.990Z,9.60
2022-10-01T02:53:31.732Z,8.80
2022-10-01T02:55:59.471Z,8.85
2022-10-01T02:58:26.566Z,9.00
2022-10-01T03:00:53.296Z,9.63
2022-10-01T03:03:19.976Z,11.10
2022-10-01T03:05:46.832Z,10.13
2022-10-01T03:08:13.545Z,11.90
2022-10-01T03:10:43.522Z,11.60
2022-10-01T03:13:13.563Z,11.05
2022-10-01T03:15:40.547Z,10.32
2022-10-01T03:18:07.267Z,11.25
2022-10-01T03:20:33.966Z,10.00
2022-10-01T03:23:00.644Z,11.25
2022-10-01T03:25:27.353Z,11.05
2022-10-01T03:27:54.014Z,10.95
2022-10-01T03:30:21.940Z,10.15
2022-10-01T03:32:48.679Z,10.00
2022-10-01T03:35:15.533Z,10.52
2022-10-01T03:37:42.273Z,9.98
2022-10-01T03:40:09.218Z,9.65
2022-10-01T03:42:35.952Z,9.73
2022-10-01T03:45:02.792Z,8.77
2022-10-01T03:47:29.452Z,8.82
2022-10-01T03:49:56.147Z,10.23
2022-10-01T03:52:22.862Z,9.35
2022-10-01T03:54:49.534Z,9.60
2022-10-01T03:57:16.247Z,10.70
2022-10-01T03:59:42.970Z,10.00
2022-10-01T04:02:09.849Z,9.60
2022-10-01T04:04:36.813Z,9.93
2022-10-01T04:07:03.759Z,9.65
2022-10-01T04:09:30.471Z,9.60
2022-10-01T04:11:57.313Z,8.27
2022-10-01T04:14:24.450Z,9.77
2022-10-01T04:16:52.598Z,10.13
2022-10-01T04:19:20.121Z,8.52
2022-10-01T04:21:46.925Z,8.20
2022-10-01T04:24:13.598Z,7.57
2022-10-01T04:26:40.351Z,8.05
2022-10-01T04:29:07.150Z,7.43
2022-10-01T04:31:35.482Z,7.03
2022-10-01T04:34:03.089Z,6.85
2022-10-01T04:36:30.009Z,6.63
2022-10-01T04:39:01.745Z,6.63
2022-10-01T04:41:31.269Z,6.45
2022-10-01T04:44:00.037Z,5.57
2022-10-01T04:46:28.179Z,6.18
2022-10-01T04:48:54.883Z,5.72
2022-10-01T04:51:21.527Z,5.85
2022-10-01T04:53:48.318Z,5.40
2022-10-01T04:56:15.124Z,5.85
2022-10-01T04:58:41.837Z,5.85
2022-10-01T05:01:08.608Z,5.20
2022-10-01T05:03:35.530Z,5.28
2022-10-01T05:06:02.206Z,5.03
2022-10-01T05:08:29.279Z,5.63
2022-10-01T05:10:58.523Z,5.15
2022-10-01T05:13:30.200Z,5.30
2022-10-01T05:15:57.521Z,5.20
2022-10-01T05:18:24.610Z,5.50
2022-10-01T05:20:51.316Z,4.85
2022-10-01T05:23:17.966Z,5.30
2022-10-01T05:25:46.895Z,5.40
2022-10-01T05:28:17.147Z,5.50
2022-10-01T05:30:46.625Z,5.32
2022-10-01T05:33:13.414Z,5.30
2022-10-01T05:35:41.078Z,5.07
2022-10-01T05:38:07.839Z,5.78
2022-10-01T05:40:34.576Z,6.13
2022-10-01T05:43:03.055Z,6.25
2022-10-01T05:45:31.366Z,6.72
2022-10-01T05:48:00.229Z,6.30
2022-10-01T05:50:28.715Z,4.93
2022-10-01T05:52:55.901Z,5.15
2022-10-01T05:55:23.417Z,5.22
2022-10-01T05:57:58.191Z,5.60
2022-10-01T06:00:28.216Z,5.90
2022-10-01T06:02:59.469Z,5.80
2022-10-01T06:05:27.430Z,5.68
2022-10-01T06:07:54.300Z,5.97
2022-10-01T06:10:22.299Z,5.50
2022-10-01T06:12:49.259Z,6.53
2022-10-01T06:15:17.235Z,6.40
2022-10-01T06:17:45.211Z,7.03
2022-10-01T06:20:14.331Z,9.10
2022-10-01T06:22:43.256Z,9.13
2022-10-01T06:25:12.172Z,11.88
2022-10-01T06:27:39.321Z,12.50
2022-10-01T06:30:07.020Z,12.48
2022-10-01T06:32:35.181Z,11.40
2022-10-01T06:35:03.153Z,10.55
2022-10-01T06:37:30.209Z,10.30
2022-10-01T06:39:56.957Z,10.63
2022-10-01T06:42:23.839Z,10.45
2022-10-01T06:44:50.680Z,9.95
2022-10-01T06:47:17.387Z,8.43
2022-10-01T06:49:47.492Z,8.45
2022-10-01T06:52:33.646Z,7.80
2022-10-01T06:55:01.536Z,7.97
2022-10-01T06:57:28.714Z,7.20
2022-10-01T06:59:55.850Z,6.63
2022-10-01T07:02:27.916Z,6.75
2022-10-01T07:05:01.547Z,6.30
2022-10-01T07:07:37.266Z,5.95
2022-10-01T07:12:36.571Z,5.15
2022-10-01T07:15:07.897Z,4.90
2022-10-01T07:17:42.269Z,4.32
2022-10-01T07:20:09.305Z,4.07
2022-10-01T07:22:36.695Z,3.85
2022-10-01T07:25:03.717Z,4.30
2022-10-01T07:27:30.389Z,4.28
2022-10-01T07:29:58.932Z,4.28
2022-10-01T07:32:27.131Z,4.10
2022-10-01T07:34:53.803Z,3.83
2022-10-01T07:37:21.498Z,3.78
2022-10-01T07:39:48.365Z,3.60
2022-10-01T07:42:15.033Z,3.67
2022-10-01T07:44:41.712Z,3.85
2022-10-01T07:47:08.870Z,3.60
2022-10-01T07:49:35.515Z,3.67
2022-10-01T07:52:02.349Z,3.15
2022-10-01T07:54:29.337Z,3.20
2022-10-01T07:56:56.082Z,3.58
2022-10-01T07:59:23.451Z,3.10
2022-10-01T08:01:54.065Z,3.42
2022-10-01T08:04:40.284Z,3.22
2022-10-01T08:07:08.703Z,3.30
2022-10-01T08:09:35.845Z,2.95
2022-10-01T08:12:02.957Z,3.00
2022-10-01T08:14:30.401Z,2.83
2022-10-01T08:16:57.462Z,3.10
2022-10-01T08:19:24.654Z,2.78
2022-10-01T08:21:51.515Z,2.97
2022-10-01T08:24:18.282Z,3.30
2022-10-01T08:26:45.133Z,3.13
2022-10-01T08:29:16.852Z,3.55
2022-10-01T08:31:43.822Z,2.90
2022-10-01T08:34:10.563Z,3.30
2022-10-01T08:36:37.818Z,2.78
2022-10-01T08:39:04.657Z,3.20
2022-10-01T08:41:49.677Z,2.80
2022-10-01T08:44:24.438Z,3.03
2022-10-01T08:46:52.487Z,3.15
2022-10-01T08:49:37.110Z,3.17
2022-10-01T08:52:15.705Z,2.70
2022-10-01T08:54:44.923Z,2.97
2022-10-01T08:57:20.115Z,3.30
2022-10-01T08:59:52.519Z,3.30
2022-10-01T09:02:26.816Z,3.10
2022-10-01T09:05:01.252Z,3.50
2022-10-01T09:07:43.510Z,3.55
2022-10-01T09:10:24.719Z,3.85
2022-10-01T09:13:13.448Z,3.30
2022-10-01T09:16:05.614Z,3.47
2022-10-01T09:18:35.362Z,4.28
2022-10-01T09:21:07.156Z,3.90
2022-10-01T09:23:51.496Z,4.00
2022-10-01T09:26:20.414Z,3.72
2022-10-01T09:28:53.840Z,4.35
2022-10-01T09:31:38.027Z,5.25
2022-10-01T09:34:27.933Z,5.45
2022-10-01T09:37:14.873Z,5.80
2022-10-01T09:39:53.362Z,6.05
2022-10-01T09:42:23.499Z,6.30
2022-10-01T09:44:50.557Z,6.55
2022-10-01T09:47:20.234Z,6.38
2022-10-01T09:49:49.206Z,6.00
2022-10-01T09:52:50.060Z,6.00
2022-10-01T09:55:32.713Z,6.53
2022-10-01T09:58:12.081Z,6.70
2022-10-01T10:00:41.032Z,7.00
2022-10-01T10:03:07.990Z,5.72
2022-10-01T10:05:46.870Z,7.07
2022-10-01T10:08:18.306Z,8.23
2022-10-01T10:11:00.657Z,6.53
2022-10-01T10:13:51.493Z,6.10
2022-10-01T10:16:27.429Z,6.00
2022-10-01T10:19:09.565Z,4.93
2022-10-01T10:21:37.291Z,4.88
2022-10-01T10:24:06.489Z,5.53
2022-10-01T10:26:38.385Z,5.43
2022-10-01T10:29:08.527Z,5.45
2022-10-01T10:31:43.573Z,6.07
2022-10-01T10:34:22.685Z,5.80
2022-10-01T10:36:57.281Z,5.78
2022-10-01T10:39:30.388Z,6.33
2022-10-01T10:42:00.156Z,5.30
2022-10-01T10:44:35.020Z,5.07
2022-10-01T10:47:04.866Z,4.75
2022-10-01T10:49:35.089Z,4.53
2022-10-01T10:52:02.002Z,4.65
2022-10-01T10:54:37.566Z,4.13
2022-10-01T10:57:26.056Z,4.05
2022-10-01T11:00:25.404Z,3.72
2022-10-01T11:02:59.387Z,3.70
2022-10-01T11:05:32.054Z,3.88
2022-10-01T11:08:02.972Z,4.07
2022-10-01T11:11:02.852Z,4.00
2022-10-01T11:13:49.606Z,4.10
2022-10-01T11:16:39.061Z,3.40
2022-10-01T11:19:15.148Z,3.53
2022-10-01T11:22:03.921Z,3.60
2022-10-01T11:24:42.688Z,4.03
2022-10-01T11:27:27.290Z,3.92
2022-10-01T11:30:07.931Z,4.97
2022-10-01T11:32:55.809Z,5.50
2022-10-01T11:35:47.648Z,4.68
2022-10-01T11:38:42.243Z,4.60
2022-10-01T11:41:27.625Z,4.10
2022-10-01T11:43:55.769Z,4.25
2022-10-01T11:46:40.203Z,3.45
2022-10-01T11:49:22.034Z,3.13
2022-10-01T11:51:53.885Z,2.90
2022-10-01T11:54:24.163Z,3.13
2022-10-01T11:57:13.450Z,3.40
2022-10-01T11:59:51.721Z,2.40
2022-10-01T12:02:37.625Z,2.25
2022-10-01T12:05:15.176Z,2.20
2022-10-01T12:07:51.226Z,2.60
2022-10-01T12:10:24.287Z,2.17
2022-10-01T12:13:26.136Z,2.55
2022-10-01T12:16:16.182Z,2.05
2022-10-01T12:18:57.327Z,1.92
2022-10-01T12:21:32.191Z,1.98
2022-10-01T12:24:06.928Z,1.73
2022-10-01T12:27:05.038Z,2.17
2022-10-01T12:29:56.358Z,1.60
2022-10-01T12:32:39.504Z,1.77
2022-10-01T12:35:35.393Z,1.80
2022-10-01T12:38:36.389Z,1.75
2022-10-01T12:41:19.524Z,1.65
2022-10-01T12:44:03.295Z,1.60
2022-10-01T12:47:03.981Z,1.65
2022-10-01T12:50:00.049Z,1.60
2022-10-01T12:52:41.720Z,1.92
2022-10-01T12:55:31.034Z,1.77
2022-10-01T12:58:24.584Z,1.83
2022-10-01T13:01:02.591Z,1.90
2022-10-01T13:03:39.471Z,1.80
2022-10-01T13:06:12.005Z,1.63
2022-10-01T13:08:44.929Z,1.50
2022-10-01T13:11:27.692Z,1.85
2022-10-01T13:13:56.160Z,1.65
2022-10-01T13:16:44.502Z,1.40
2022-10-01T13:19:24.862Z,1.40
2022-10-01T13:22:14.956Z,1.95
2022-10-01T13:24:55.578Z,1.27
2022-10-01T13:27:36.691Z,1.10
2022-10-01T13:30:23.467Z,1.10
2022-10-01T13:32:57.928Z,1.10
2022-10-01T13:38:14.762Z,1.30
2022-10-01T13:40:41.877Z,1.27
2022-10-01T13:43:15.485Z,1.40
2022-10-01T13:45:45.581Z,1.50
2022-10-01T13:48:25.492Z,1.10
2022-10-01T13:51:03.543Z,1.40
2022-10-01T13:53:47.449Z,1.23
2022-10-01T13:56:28.410Z,1.52
2022-10-01T13:58:55.419Z,1.70
2022-10-01T14:01:24.379Z,1.85
2022-10-01T14:04:18.774Z,2.10
2022-10-01T14:06:50.396Z,1.95
2022-10-01T14:09:27.279Z,2.15
2022-10-01T14:12:46.363Z,2.30
2022-10-01T14:16:00.270Z,2.20
2022-10-01T14:18:33.001Z,2.00
2022-10-01T14:21:33.345Z,1.65
2022-10-01T14:24:09.308Z,2.00
2022-10-01T14:26:48.148Z,2.20
2022-10-01T14:29:33.765Z,2.20
2022-10-01T14:32:16.274Z,1.98
2022-10-01T14:35:00.523Z,2.35
2022-10-01T14:37:29.008Z,2.53
2022-10-01T14:40:23.553Z,1.90
2022-10-01T14:43:11.147Z,1.90
2022-10-01T14:45:37.886Z,1.40
2022-10-01T14:48:06.803Z,1.63
2022-10-01T14:50:37.230Z,1.55
2022-10-01T14:53:03.953Z,3.60
2022-10-01T14:55:31.355Z,2.22
2022-10-01T14:57:58.924Z,1.60
2022-10-01T15:00:28.074Z,2.20
2022-10-01T15:03:10.663Z,1.98
2022-10-01T15:05:37.442Z,1.80
2022-10-01T15:08:13.398Z,1.40
2022-10-01T15:11:08.056Z,2.00
2022-10-01T15:13:41.159Z,1.50
2022-10-01T15:16:17.882Z,1.55
2022-10-01T15:18:48.286Z,1.80
2022-10-01T15:21:36.696Z,1.60
2022-10-01T15:24:06.533Z,2.15
2022-10-01T15:26:33.708Z,1.60
2022-10-01T15:29:13.094Z,1.55
2022-10-01T15:31:40.707Z,1.50
2022-10-01T15:34:12.404Z,1.45
2022-10-01T15:36:41.284Z,1.80
2022-10-01T15:39:24.845Z,1.50
2022-10-01T15:41:53.439Z,1.90
2022-10-01T15:44:46.201Z,1.70
2022-10-01T15:47:34.114Z,1.30
2022-10-01T15:50:10.091Z,1.38
2022-10-01T15:52:53.258Z,1.42
2022-10-01T15:55:42.466Z,1.15
2022-10-01T15:58:32.456Z,1.50
2022-10-01T16:01:13.063Z,1.20
2022-10-01T16:03:52.700Z,1.23
2022-10-01T16:06:35.248Z,1.02
2022-10-01T16:09:07.419Z,1.15
2022-10-01T16:11:52.630Z,1.20
2022-10-01T16:14:30.840Z,1.52
2022-10-01T16:17:16.348Z,1.45
2022-10-01T16:19:51.448Z,1.40
2022-10-01T16:22:31.856Z,1.77
2022-10-01T16:25:01.121Z,1.90
2022-10-01T16:27:29.576Z,1.63
2022-10-01T16:30:07.177Z,1.30
2022-10-01T16:32:34.370Z,1.00
2022-10-01T16:35:20.436Z,1.38
2022-10-01T16:37:50.022Z,1.30
2022-10-01T16:40:18.266Z,1.20
2022-10-01T16:42:46.451Z,1.05
2022-10-01T16:45:15.805Z,1.33
2022-10-01T16:47:42.817Z,3.08
2022-10-01T16:50:15.854Z,2.05
2022-10-01T16:52:42.865Z,1.70
2022-10-01T16:55:23.105Z,1.45
2022-10-01T16:57:50.654Z,1.45
2022-10-01T17:00:20.034Z,1.65
2022-10-01T17:02:46.856Z,1.52
2022-10-01T17:05:22.742Z,1.42
2022-10-01T17:07:49.967Z,1.42
2022-10-01T17:10:18.293Z,1.45
2022-10-01T17:12:47.778Z,1.35
2022-10-01T17:15:22.505Z,1.52
2022-10-01T17:17:49.424Z,1.42
2022-10-01T17:20:16.394Z,1.67
2022-10-01T17:22:43.944Z,1.92
2022-10-01T17:25:19.549Z,1.98
2022-10-01T17:27:46.962Z,1.75
2022-10-01T17:30:14.233Z,2.33
2022-10-01T17:32:42.952Z,2.65
2022-10-01T17:35:14.722Z,2.75
2022-10-01T17:37:42.475Z,2.45
2022-10-01T17:40:10.394Z,2.15
2022-10-01T17:42:37.500Z,1.85
2022-10-01T17:45:08.132Z,1.90
2022-10-01T17:47:35.004Z,2.00
2022-10-01T17:50:03.240Z,2.15
2022-10-01T17:52:32.124Z,2.47
2022-10-01T17:54:58.931Z,1.67
2022-10-01T17:57:25.862Z,1.88
2022-10-01T17:59:52.544Z,1.98
2022-10-01T18:02:40.503Z,2.10
2022-10-01T18:05:09.492Z,1.98
2022-10-01T18:07:37.195Z,1.90
2022-10-01T18:10:06.051Z,2.10
2022-10-01T18:12:33.786Z,2.17
2022-10-01T18:15:01.484Z,1.80
2022-10-01T18:17:28.313Z,2.25
2022-10-01T18:19:55.269Z,1.98
2022-10-01T18:22:21.954Z,2.15
2022-10-01T18:24:48.612Z,2.30
2022-10-01T18:27:15.491Z,2.20
2022-10-01T18:29:42.399Z,2.72
2022-10-01T18:32:20.555Z,3.70
2022-10-01T18:35:03.340Z,3.60
2022-10-01T18:37:41.320Z,3.28
2022-10-01T18:40:11.039Z,2.42
2022-10-01T18:42:49.389Z,2.67
2022-10-01T18:45:54.747Z,3.13
2022-10-01T18:48:40.189Z,3.00
2022-10-01T18:51:38.315Z,3.50
2022-10-01T18:54:42.620Z,3.55
2022-10-01T18:57:18.464Z,3.30
2022-10-01T18:59:50.974Z,3.47
2022-10-01T19:02:54.343Z,3.42
2022-10-01T19:05:40.074Z,3.80
2022-10-01T19:08:15.927Z,3.92
2022-10-01T19:11:21.698Z,4.45
2022-10-01T19:14:10.150Z,4.10
2022-10-01T19:16:49.086Z,4.22
2022-10-01T19:19:31.201Z,3.85
2022-10-01T19:22:02.994Z,3.90
2022-10-01T19:25:15.561Z,3.47
2022-10-01T19:27:59.983Z,3.35
2022-10-01T19:30:31.931Z,3.50
2022-10-01T19:33:08.217Z,2.95
2022-10-01T19:35:39.488Z,2.83
2022-10-01T19:38:11.292Z,2.95
2022-10-01T19:40:41.716Z,3.38
2022-10-01T19:43:30.228Z,2.70
2022-10-01T19:46:01.087Z,3.17
2022-10-01T19:48:51.054Z,2.83
2022-10-01T19:51:24.558Z,3.00
2022-10-01T19:54:00.360Z,3.28
2022-10-01T19:56:34.845Z,3.10
2022-10-01T19:59:12.864Z,3.20
2022-10-01T20:02:01.403Z,3.20
2022-10-01T20:04:30.359Z,2.67
2022-10-01T20:07:07.162Z,3.15
2022-10-01T20:09:39.805Z,2.90
2022-10-01T20:12:12.465Z,2.75
2022-10-01T20:15:08.642Z,2.33
2022-10-01T20:17:57.036Z,2.72
2022-10-01T20:20:35.207Z,3.00
2022-10-01T20:23:27.772Z,3.33
2022-10-01T20:26:09.712Z,3.35
2022-10-01T20:28:51.873Z,3.00
2022-10-01T20:31:31.830Z,2.72
2022-10-01T20:34:39.345Z,2.45
2022-10-01T20:37:37.197Z,2.67
2022-10-01T20:40:27.242Z,2.85
2022-10-01T20:43:10.745Z,2.83
2022-10-01T20:45:40.260Z,3.10
2022-10-01T20:48:27.666Z,2.70
2022-10-01T20:51:01.315Z,2.97
2022-10-01T20:53:40.133Z,2.97
2022-10-01T20:56:21.400Z,2.42
2022-10-01T20:59:02.044Z,2.53
2022-10-01T21:01:32.355Z,2.70
2022-10-01T21:04:11.387Z,2.28
2022-10-01T21:06:48.755Z,3.70
2022-10-01T21:09:22.655Z,2.05
2022-10-01T21:12:02.127Z,2.88
2022-10-01T21:14:52.747Z,3.53
2022-10-01T21:17:44.357Z,2.92
2022-10-01T21:20:40.038Z,3.03
2022-10-01T21:23:15.513Z,3.47
2022-10-01T21:26:00.709Z,2.85
2022-10-01T21:28:30.207Z,2.80
2022-10-01T21:31:15.680Z,3.00
2022-10-01T21:34:17.528Z,2.83
2022-10-01T21:37:09.798Z,3.20
2022-10-01T21:40:01.038Z,2.72
2022-10-01T21:42:44.735Z,3.65
2022-10-01T21:45:30.284Z,3.42
2022-10-01T21:48:17.014Z,3.10
2022-10-01T21:50:54.161Z,2.67
2022-10-01T21:53:39.636Z,2.50
2022-10-01T21:56:22.159Z,2.80
2022-10-01T21:59:16.883Z,2.88
2022-10-01T22:02:14.840Z,2.83
2022-10-01T22:04:55.908Z,2.75
2022-10-01T22:07:28.125Z,2.70
2022-10-01T22:10:17.819Z,2.33
2022-10-01T22:12:48.102Z,2.25
2022-10-01T22:15:40.875Z,2.10
2022-10-01T22:18:15.234Z,2.13
2022-10-01T22:20:44.015Z,1.85
2022-10-01T22:23:14.743Z,2.08
2022-10-01T22:25:56.344Z,1.80
2022-10-01T22:28:31.065Z,1.88
2022-10-01T22:31:00.507Z,1.77
2022-10-01T22:33:40.559Z,2.00
2022-10-01T22:36:20.376Z,1.80
2022-10-01T22:38:54.132Z,1.83
2022-10-01T22:41:21.084Z,1.90
2022-10-01T22:43:47.897Z,2.13
2022-10-01T22:46:49.037Z,1.75
2022-10-01T22:49:36.059Z,2.42
2022-10-01T22:52:31.463Z,1.98
2022-10-01T22:55:28.420Z,1.88
2022-10-01T22:58:22.044Z,1.90
2022-10-01T23:01:08.293Z,1.60
2022-10-01T23:03:53.787Z,1.52
2022-10-01T23:06:40.460Z,1.50
2022-10-01T23:09:39.739Z,1.67
2022-10-01T23:12:14.188Z,1.90
2022-10-01T23:15:20.996Z,1.83
2022-10-01T23:20:51.776Z,1.40
2022-10-01T23:23:29.906Z,1.50
2022-10-01T23:25:56.588Z,1.27
2022-10-01T23:28:33.789Z,1.77
2022-10-01T23:31:06.677Z,1.60
2022-10-01T23:33:51.656Z,1.30
2022-10-01T23:36:38.127Z,1.70
2022-10-01T23:39:21.961Z,1.33
2022-10-01T23:42:11.686Z,1.50
2022-10-01T23:45:08.697Z,1.50
2022-10-01T23:47:46.752Z,1.55
2022-10-01T23:50:29.661Z,1.50
2022-10-01T23:53:32.761Z,1.77
2022-10-01T23:56:35.871Z,2.30
2022-10-01T23:59:21.408Z,1.60
